Beech Grove, Texas
Current Conditions -  °F | °C
As of 8:55 AM on Saturday 20 Dec 2014 (Local Time) from KJAS Reporting Station
Overcast Overcast  
Wind Chill: 44°   Ceiling: 400
Heat Index: 47°   Visibility: 7mi
Dew Point: 46°   Wind: 6mph
Humidity: 97%   Direction: 10°N
Pressure: 30.24"   Gusts: NA
Location:  30.9529°N, 94.0707°W
Report Text: KJAS 201455Z AUTO 01005KT 7SM OVC004 08/08 A3024 RMK AO2 T00810077
Loading
Personal Weather Stations






























Interactive Weather Map New forecast layout! Learn more

10-Day Weather Forecast

Advertisements
Track Severe Weather on mobile